createdAt,value
2018-12-06T00:42:11.883Z,20.10
2018-12-06T00:44:43.415Z,20.10
2018-12-06T00:47:15.087Z,20.10
2018-12-06T00:49:46.471Z,20.10
2018-12-06T00:52:17.779Z,20.00
2018-12-06T00:54:49.393Z,20.00
2018-12-06T00:57:20.786Z,20.20
2018-12-06T00:59:52.242Z,20.20
2018-12-06T01:02:24.781Z,20.30
2018-12-06T01:04:56.149Z,20.30
2018-12-06T01:07:27.475Z,20.30
2018-12-06T01:09:58.797Z,20.40
2018-12-06T01:12:40.535Z,20.40
2018-12-06T01:15:12.392Z,20.50
2018-12-06T01:17:44.207Z,20.60
2018-12-06T01:20:15.765Z,20.80
2018-12-06T01:22:47.490Z,20.90
2018-12-06T01:25:19.164Z,20.80
2018-12-06T01:27:50.786Z,20.80
2018-12-06T01:30:22.429Z,20.60
2018-12-06T01:32:53.805Z,20.60
2018-12-06T01:35:25.425Z,20.40
2018-12-06T01:37:56.846Z,20.30
2018-12-06T01:40:28.433Z,20.20
2018-12-06T01:42:59.748Z,20.10
2018-12-06T01:45:31.638Z,20.10
2018-12-06T01:48:02.857Z,20.00
2018-12-06T01:50:34.231Z,19.90
2018-12-06T01:53:05.637Z,19.80
2018-12-06T01:55:37.064Z,19.70
2018-12-06T01:58:08.419Z,19.70
2018-12-06T02:00:39.967Z,19.70
2018-12-06T02:03:11.466Z,19.70
2018-12-06T02:05:42.908Z,19.70
2018-12-06T02:08:13.972Z,19.70
2018-12-06T02:10:45.336Z,19.70
2018-12-06T02:13:16.655Z,19.70
2018-12-06T02:15:48.474Z,19.60
2018-12-06T02:18:18.373Z,19.60
2018-12-06T02:20:49.896Z,19.70
2018-12-06T02:23:21.284Z,19.70
2018-12-06T02:25:53.250Z,19.70
2018-12-06T02:28:24.732Z,19.80
2018-12-06T02:30:56.640Z,19.90
2018-12-06T02:33:27.929Z,20.00
2018-12-06T02:35:59.830Z,20.00
2018-12-06T02:38:31.542Z,19.80
2018-12-06T02:41:03.205Z,19.80
2018-12-06T02:43:34.510Z,19.80
2018-12-06T02:46:06.348Z,19.90
2018-12-06T02:48:56.442Z,19.80
2018-12-06T02:51:28.477Z,19.80
2018-12-06T02:54:00.671Z,19.80
2018-12-06T02:56:32.480Z,20.00
2018-12-06T02:59:03.641Z,20.20
2018-12-06T03:01:35.261Z,20.40
2018-12-06T03:04:07.350Z,20.50
2018-12-06T03:06:38.518Z,20.60
2018-12-06T03:09:10.666Z,20.60
2018-12-06T03:11:42.272Z,20.60
2018-12-06T03:14:13.896Z,20.60
2018-12-06T03:16:46.635Z,20.50
2018-12-06T03:19:17.848Z,20.50
2018-12-06T03:21:49.214Z,20.50
2018-12-06T03:24:20.524Z,20.50
2018-12-06T03:26:52.321Z,20.70
2018-12-06T03:29:23.972Z,20.70
2018-12-06T03:31:55.663Z,20.70
2018-12-06T03:34:27.608Z,20.70
2018-12-06T03:36:59.485Z,20.60
2018-12-06T03:39:31.192Z,20.70
2018-12-06T03:42:02.983Z,20.70
2018-12-06T03:44:37.326Z,20.70
2018-12-06T03:47:08.971Z,20.70
2018-12-06T03:49:41.151Z,20.70
2018-12-06T03:52:13.010Z,20.60
2018-12-06T03:54:44.755Z,20.40
2018-12-06T03:57:16.089Z,20.10
2018-12-06T03:59:47.380Z,19.80
2018-12-06T04:02:20.008Z,19.60
2018-12-06T04:04:53.301Z,19.50
2018-12-06T04:07:25.259Z,19.50
2018-12-06T04:09:57.510Z,19.60
2018-12-06T04:12:29.732Z,19.70
2018-12-06T04:15:01.078Z,19.70
2018-12-06T04:17:33.702Z,19.80
2018-12-06T04:20:05.655Z,19.90
2018-12-06T04:22:37.424Z,20.10
2018-12-06T04:25:09.102Z,20.10
2018-12-06T04:27:40.961Z,20.10
2018-12-06T04:30:13.156Z,20.00
2018-12-06T04:32:45.094Z,19.90
2018-12-06T04:35:16.728Z,19.80
2018-12-06T04:37:47.889Z,19.80
2018-12-06T04:40:20.290Z,20.00
2018-12-06T04:42:50.560Z,20.10
2018-12-06T04:45:22.280Z,20.10
2018-12-06T04:47:54.341Z,20.30
2018-12-06T04:50:24.209Z,20.40
2018-12-06T04:52:55.963Z,20.40
2018-12-06T04:55:26.846Z,20.40
2018-12-06T04:57:57.975Z,20.30
2018-12-06T05:00:29.465Z,20.30
2018-12-06T05:02:59.432Z,20.30
2018-12-06T05:05:31.036Z,20.20
2018-12-06T05:08:01.112Z,20.10
2018-12-06T05:10:32.986Z,20.00
2018-12-06T05:13:03.312Z,20.00
2018-12-06T05:15:34.868Z,20.20
2018-12-06T05:18:04.828Z,20.30
2018-12-06T05:20:36.514Z,20.20
2018-12-06T05:23:06.844Z,20.20
2018-12-06T05:25:39.250Z,20.10
2018-12-06T05:28:09.167Z,20.00
2018-12-06T05:30:40.730Z,19.90
2018-12-06T05:33:11.431Z,19.70
2018-12-06T05:35:43.093Z,19.80
2018-12-06T05:38:12.947Z,19.80
2018-12-06T05:40:44.923Z,19.80
2018-12-06T05:43:15.599Z,19.70
2018-12-06T05:45:47.563Z,19.90
2018-12-06T05:48:18.570Z,20.00
2018-12-06T05:50:50.335Z,20.00
2018-12-06T05:53:21.031Z,20.00
2018-12-06T05:55:53.635Z,20.20
2018-12-06T05:58:25.805Z,20.20
2018-12-06T06:00:57.551Z,20.20
2018-12-06T06:03:29.450Z,20.40
2018-12-06T06:06:01.679Z,20.60
2018-12-06T06:08:32.170Z,20.80
2018-12-06T06:11:03.715Z,21.10
2018-12-06T06:13:34.815Z,21.20
2018-12-06T06:16:06.479Z,21.50
2018-12-06T06:18:36.920Z,21.50
2018-12-06T06:21:08.959Z,21.70
2018-12-06T06:23:39.954Z,22.00
2018-12-06T06:26:10.023Z,22.20
2018-12-06T06:28:41.880Z,22.30
2018-12-06T06:31:13.259Z,22.00
2018-12-06T06:33:45.357Z,21.70
2018-12-06T06:36:17.017Z,21.60
2018-12-06T06:38:48.736Z,21.50
2018-12-06T06:41:20.738Z,21.40
2018-12-06T06:43:52.578Z,21.40
2018-12-06T06:46:23.735Z,21.30
2018-12-06T06:48:54.538Z,21.30
2018-12-06T06:51:26.108Z,21.20
2018-12-06T06:53:57.606Z,21.00
2018-12-06T06:56:29.836Z,20.80
2018-12-06T06:59:00.172Z,20.50
2018-12-06T07:01:31.823Z,20.30
2018-12-06T07:04:02.265Z,20.30
2018-12-06T07:06:33.879Z,20.20
2018-12-06T07:09:06.339Z,20.10
2018-12-06T07:11:36.695Z,20.10
2018-12-06T07:14:08.485Z,20.00
2018-12-06T07:16:39.851Z,20.00
2018-12-06T07:19:12.095Z,20.00
2018-12-06T07:21:43.717Z,20.10
2018-12-06T07:24:16.149Z,20.20
2018-12-06T07:26:47.063Z,20.40
2018-12-06T07:29:18.981Z,20.50
2018-12-06T07:31:51.061Z,20.60
2018-12-06T07:34:23.169Z,20.60
2018-12-06T07:36:54.203Z,20.70
2018-12-06T07:39:25.103Z,20.70
2018-12-06T07:41:57.187Z,20.50
2018-12-06T07:44:28.141Z,20.40
2018-12-06T07:47:00.823Z,20.20
2018-12-06T07:49:31.321Z,20.10
2018-12-06T07:52:03.411Z,20.10
2018-12-06T07:54:35.375Z,20.00
2018-12-06T07:57:05.382Z,20.00
2018-12-06T07:59:35.298Z,19.90
2018-12-06T08:02:06.872Z,19.80
2018-12-06T08:04:37.279Z,19.70
2018-12-06T08:07:09.122Z,19.50
2018-12-06T08:12:17.085Z,19.10
2018-12-06T08:14:47.875Z,19.00
2018-12-06T08:17:19.186Z,18.90
2018-12-06T08:19:50.714Z,18.90
2018-12-06T08:22:22.293Z,18.90
2018-12-06T08:24:52.841Z,19.10
2018-12-06T08:27:23.925Z,19.20
2018-12-06T08:29:55.213Z,19.40
2018-12-06T08:32:26.972Z,19.50
2018-12-06T08:34:58.144Z,19.60
2018-12-06T08:37:29.788Z,19.70
2018-12-06T08:40:00.925Z,19.70
2018-12-06T08:42:32.332Z,19.80
2018-12-06T08:45:03.284Z,19.90
2018-12-06T08:47:35.322Z,20.00
2018-12-06T08:50:06.592Z,20.00
2018-12-06T08:52:38.724Z,20.00
2018-12-06T08:55:09.864Z,20.10
2018-12-06T08:57:42.198Z,20.20
2018-12-06T09:00:13.355Z,20.20
2018-12-06T09:02:45.001Z,20.30
2018-12-06T09:05:16.446Z,20.30
2018-12-06T09:07:47.816Z,20.30
2018-12-06T09:10:18.789Z,20.40
2018-12-06T09:13:05.775Z,20.40
2018-12-06T09:15:37.913Z,20.30
2018-12-06T09:18:08.424Z,20.30
2018-12-06T09:20:40.213Z,20.30
2018-12-06T09:24:04.762Z,20.30
2018-12-06T09:26:35.886Z,20.30
2018-12-06T09:29:06.675Z,20.20
2018-12-06T09:31:37.028Z,19.90
2018-12-06T09:34:08.512Z,19.80
2018-12-06T09:36:39.584Z,19.70
2018-12-06T09:39:11.824Z,19.70
2018-12-06T09:41:43.157Z,19.70
2018-12-06T09:44:16.690Z,19.70
2018-12-06T09:46:48.216Z,19.50
2018-12-06T09:49:18.540Z,19.40
2018-12-06T09:51:49.015Z,19.30
2018-12-06T09:54:19.433Z,19.30
2018-12-06T09:56:48.965Z,19.30
2018-12-06T09:59:18.834Z,19.40
2018-12-06T10:01:49.639Z,19.50
2018-12-06T10:04:20.610Z,19.50
2018-12-06T10:06:51.289Z,19.60
2018-12-06T10:09:23.279Z,19.70
2018-12-06T10:11:54.333Z,19.70
2018-12-06T10:14:25.209Z,19.70
2018-12-06T10:16:56.251Z,19.70
2018-12-06T10:19:27.581Z,19.70
2018-12-06T10:21:58.337Z,19.90
2018-12-06T10:24:30.113Z,19.90
2018-12-06T10:27:01.291Z,20.00
2018-12-06T10:29:32.625Z,20.00
2018-12-06T10:32:03.493Z,20.00
2018-12-06T10:34:35.049Z,19.90
2018-12-06T10:37:06.333Z,19.90
2018-12-06T10:39:37.445Z,20.00
2018-12-06T10:42:08.890Z,20.10
2018-12-06T10:44:39.937Z,20.10
2018-12-06T10:47:11.202Z,20.10
2018-12-06T10:49:41.766Z,20.20
2018-12-06T10:52:13.444Z,20.30
2018-12-06T10:54:43.343Z,20.40
2018-12-06T10:57:12.321Z,20.50
2018-12-06T10:59:41.645Z,20.30
2018-12-06T11:02:16.400Z,20.10
2018-12-06T11:04:47.377Z,19.80
2018-12-06T11:07:18.023Z,19.70
2018-12-06T11:09:49.249Z,19.50
2018-12-06T11:12:19.839Z,19.50
2018-12-06T11:14:51.091Z,19.30
2018-12-06T11:17:21.961Z,19.30
2018-12-06T11:19:53.092Z,19.30
2018-12-06T11:22:23.503Z,19.30
2018-12-06T11:24:54.392Z,19.40
2018-12-06T11:27:25.317Z,19.40
2018-12-06T11:29:55.889Z,19.40
2018-12-06T11:32:39.408Z,19.40
2018-12-06T11:35:10.068Z,19.40
2018-12-06T11:37:42.039Z,19.40
2018-12-06T11:40:12.624Z,19.60
2018-12-06T11:42:43.588Z,19.70
2018-12-06T11:45:14.261Z,19.80
2018-12-06T11:47:44.731Z,19.80
2018-12-06T11:50:15.873Z,19.80
2018-12-06T11:52:46.858Z,19.90
2018-12-06T11:55:17.979Z,20.00
2018-12-06T11:57:50.286Z,20.00
2018-12-06T12:00:20.954Z,20.20
2018-12-06T12:02:51.210Z,20.10
2018-12-06T12:05:21.327Z,20.20
2018-12-06T12:07:51.136Z,20.20
2018-12-06T12:10:21.082Z,20.10
2018-12-06T12:12:50.570Z,20.00
2018-12-06T12:15:19.836Z,20.00
2018-12-06T12:17:50.432Z,19.90
2018-12-06T12:20:20.880Z,19.70
2018-12-06T12:22:51.314Z,19.30
2018-12-06T12:25:22.333Z,19.10
2018-12-06T12:27:52.825Z,19.10
2018-12-06T12:30:24.629Z,19.00
2018-12-06T12:32:54.973Z,19.00
2018-12-06T12:35:25.989Z,18.90
2018-12-06T12:37:57.065Z,18.80
2018-12-06T12:40:28.034Z,18.60
2018-12-06T12:42:59.018Z,18.60
2018-12-06T12:45:30.413Z,18.50
2018-12-06T12:48:01.476Z,18.50
2018-12-06T12:50:32.210Z,18.50
2018-12-06T12:53:02.635Z,18.60
2018-12-06T12:55:33.349Z,18.80
2018-12-06T12:58:04.302Z,18.90
2018-12-06T13:00:34.906Z,19.10
2018-12-06T13:03:03.797Z,19.20
2018-12-06T13:05:34.170Z,19.20
2018-12-06T13:08:03.843Z,19.30
2018-12-06T13:10:34.197Z,19.50
2018-12-06T13:13:04.034Z,19.40
2018-12-06T13:15:33.940Z,19.50
2018-12-06T13:18:04.063Z,19.70
2018-12-06T13:20:33.377Z,19.70
2018-12-06T13:23:04.132Z,19.80
2018-12-06T13:25:34.517Z,19.80
2018-12-06T13:28:06.127Z,19.90
2018-12-06T13:30:36.624Z,19.80
2018-12-06T13:33:07.305Z,19.80
2018-12-06T13:35:37.984Z,19.80
2018-12-06T13:38:08.567Z,19.70
2018-12-06T13:40:39.013Z,19.60
2018-12-06T13:43:09.716Z,19.60
2018-12-06T13:45:40.833Z,19.60
2018-12-06T13:48:10.697Z,19.50
2018-12-06T13:50:41.061Z,19.50
2018-12-06T13:53:11.515Z,19.50
2018-12-06T13:55:42.033Z,19.50
2018-12-06T13:58:12.325Z,19.40
2018-12-06T14:00:43.061Z,19.20
2018-12-06T14:03:13.598Z,19.10
2018-12-06T14:05:43.839Z,19.10
2018-12-06T14:08:14.389Z,19.00
2018-12-06T14:10:44.146Z,19.00
2018-12-06T14:13:13.995Z,19.00
2018-12-06T14:15:43.447Z,19.00
2018-12-06T14:18:13.361Z,19.00
2018-12-06T14:20:43.350Z,18.90
2018-12-06T14:23:13.218Z,18.90
2018-12-06T14:25:44.309Z,18.90
2018-12-06T14:28:14.833Z,18.90
2018-12-06T14:30:45.113Z,18.90
2018-12-06T14:33:15.416Z,19.00
2018-12-06T14:35:45.969Z,19.10
2018-12-06T14:38:16.575Z,19.10
2018-12-06T14:40:46.765Z,19.10
2018-12-06T14:43:19.666Z,19.20
2018-12-06T14:45:50.108Z,19.30
2018-12-06T14:48:20.820Z,19.30
2018-12-06T14:50:51.354Z,19.20
2018-12-06T14:53:21.966Z,19.20
2018-12-06T14:55:52.992Z,19.20
2018-12-06T14:58:23.434Z,19.20
2018-12-06T15:00:53.812Z,19.40
2018-12-06T15:03:24.298Z,19.30
2018-12-06T15:05:55.152Z,19.30
2018-12-06T15:08:26.277Z,19.40
2018-12-06T15:10:56.548Z,19.40
2018-12-06T15:13:26.318Z,19.50
2018-12-06T15:15:56.286Z,19.50
2018-12-06T15:18:25.952Z,19.60
2018-12-06T15:20:56.858Z,19.50
2018-12-06T15:23:26.699Z,19.40
2018-12-06T15:25:56.967Z,19.30
2018-12-06T15:28:27.533Z,19.30
2018-12-06T15:30:57.878Z,19.20
2018-12-06T15:33:28.448Z,19.20
2018-12-06T15:35:59.130Z,19.30
2018-12-06T15:38:29.841Z,19.20
2018-12-06T15:41:00.940Z,19.20
2018-12-06T15:43:31.642Z,19.20
2018-12-06T15:46:02.097Z,19.10
2018-12-06T15:48:32.519Z,19.20
2018-12-06T15:51:02.896Z,19.20
2018-12-06T15:53:34.539Z,19.20
2018-12-06T15:56:04.939Z,19.30
2018-12-06T15:58:35.574Z,19.30
2018-12-06T16:01:06.248Z,19.40
2018-12-06T16:03:36.801Z,19.50
2018-12-06T16:06:07.163Z,19.70
2018-12-06T16:08:37.949Z,19.90
2018-12-06T16:11:09.057Z,20.00
2018-12-06T16:13:39.710Z,20.00
2018-12-06T16:16:11.101Z,20.10
2018-12-06T16:18:42.628Z,20.00
2018-12-06T16:21:12.849Z,20.00
2018-12-06T16:23:42.593Z,20.00
2018-12-06T16:26:14.555Z,20.00
2018-12-06T16:28:43.733Z,20.00
2018-12-06T16:31:12.823Z,19.90
2018-12-06T16:33:43.151Z,19.90
2018-12-06T16:36:15.391Z,19.90
2018-12-06T16:38:46.295Z,20.00
2018-12-06T16:41:17.655Z,20.00
2018-12-06T16:43:48.073Z,20.00
2018-12-06T16:46:19.199Z,20.10
2018-12-06T16:48:49.865Z,20.10
2018-12-06T16:51:21.987Z,20.00
2018-12-06T16:53:52.615Z,20.00
2018-12-06T16:56:24.579Z,19.80
2018-12-06T16:58:55.725Z,19.70
2018-12-06T17:01:26.611Z,19.40
2018-12-06T17:03:57.808Z,19.20
2018-12-06T17:06:29.238Z,18.90
2018-12-06T17:09:00.337Z,18.80
2018-12-06T17:11:29.998Z,18.70
2018-12-06T17:14:01.357Z,18.70
2018-12-06T17:16:32.251Z,18.70
2018-12-06T17:19:03.189Z,18.60
2018-12-06T17:24:47.954Z,18.60
2018-12-06T17:27:18.793Z,18.70
2018-12-06T17:29:49.358Z,18.70
2018-12-06T17:32:21.287Z,18.70
2018-12-06T17:34:52.752Z,18.80
2018-12-06T17:37:23.965Z,18.80
2018-12-06T17:39:54.381Z,18.80
2018-12-06T17:42:23.350Z,18.90
2018-12-06T17:44:53.187Z,18.90
2018-12-06T17:47:23.690Z,18.90
2018-12-06T17:49:53.660Z,19.00
2018-12-06T17:52:23.105Z,19.00
2018-12-06T17:54:53.493Z,18.90
2018-12-06T17:57:23.706Z,19.00
2018-12-06T17:59:54.117Z,19.10
2018-12-06T18:02:24.823Z,19.20
2018-12-06T18:04:55.455Z,19.20
2018-12-06T18:07:26.250Z,19.40
2018-12-06T18:09:56.865Z,19.40
2018-12-06T18:12:28.433Z,19.40
2018-12-06T18:15:00.695Z,19.50
2018-12-06T18:17:32.301Z,19.50
2018-12-06T18:20:02.789Z,19.50
2018-12-06T18:22:33.396Z,19.50
2018-12-06T18:25:07.825Z,19.50
2018-12-06T18:27:38.505Z,19.40
2018-12-06T18:30:09.376Z,19.40
2018-12-06T18:32:39.905Z,19.50
2018-12-06T18:35:10.473Z,19.50
2018-12-06T18:37:41.107Z,19.60
2018-12-06T18:40:11.853Z,19.60
2018-12-06T18:42:42.391Z,19.60
2018-12-06T18:45:13.405Z,19.50
2018-12-06T18:47:44.587Z,19.40
2018-12-06T18:50:15.799Z,19.30
2018-12-06T18:52:45.992Z,19.30
2018-12-06T18:55:15.842Z,19.30
2018-12-06T18:57:45.843Z,19.30
2018-12-06T19:00:15.814Z,19.20
2018-12-06T19:02:47.321Z,19.20
2018-12-06T19:05:18.357Z,19.20
2018-12-06T19:07:49.539Z,19.30
2018-12-06T19:10:20.711Z,19.50
2018-12-06T19:12:52.177Z,19.60
2018-12-06T19:15:22.849Z,19.60
2018-12-06T19:17:53.877Z,19.60
2018-12-06T19:20:24.786Z,19.60
2018-12-06T19:22:55.711Z,19.50
2018-12-06T19:25:27.091Z,19.40
2018-12-06T19:27:57.879Z,19.40
2018-12-06T19:30:28.676Z,19.40
2018-12-06T19:33:03.345Z,19.40
2018-12-06T19:35:33.478Z,19.30
2018-12-06T19:38:05.069Z,19.20
2018-12-06T19:40:36.222Z,19.20
2018-12-06T19:43:06.735Z,19.10
2018-12-06T19:45:37.349Z,19.10
2018-12-06T19:48:07.847Z,19.20
2018-12-06T19:50:53.483Z,19.20
2018-12-06T19:53:23.821Z,19.20
2018-12-06T19:55:54.297Z,19.20
2018-12-06T19:58:24.295Z,19.20
2018-12-06T20:00:53.995Z,19.10
2018-12-06T20:03:23.734Z,19.10
2018-12-06T20:05:52.831Z,19.30
2018-12-06T20:08:22.119Z,19.40
2018-12-06T20:10:52.978Z,19.50
2018-12-06T20:13:24.351Z,19.50
2018-12-06T20:15:55.407Z,19.50
2018-12-06T20:18:26.843Z,19.40
2018-12-06T20:20:57.298Z,19.40
2018-12-06T20:23:27.898Z,19.30
2018-12-06T20:25:58.931Z,19.20
2018-12-06T20:28:30.426Z,19.20
2018-12-06T20:31:02.445Z,19.20
2018-12-06T20:33:33.082Z,19.10
2018-12-06T20:36:04.007Z,19.10
2018-12-06T20:38:34.487Z,19.10
2018-12-06T20:41:06.339Z,19.10
2018-12-06T20:43:38.516Z,19.20
2018-12-06T20:46:08.408Z,19.30
2018-12-06T20:48:38.888Z,19.30
2018-12-06T20:51:09.527Z,19.30
2018-12-06T20:53:40.655Z,19.40
2018-12-06T20:56:11.053Z,19.40
2018-12-06T20:58:41.583Z,19.60
2018-12-06T21:01:12.140Z,19.50
2018-12-06T21:03:42.057Z,19.50
2018-12-06T21:06:12.670Z,19.60
2018-12-06T21:08:43.657Z,19.50
2018-12-06T21:11:14.018Z,19.60
2018-12-06T21:13:45.225Z,19.60
2018-12-06T21:16:16.740Z,19.60
2018-12-06T21:18:47.363Z,19.60
2018-12-06T21:21:23.939Z,19.60
2018-12-06T21:23:54.701Z,19.50
2018-12-06T21:26:26.440Z,19.40
2018-12-06T21:28:58.074Z,19.40
2018-12-06T21:31:28.839Z,19.50
2018-12-06T21:33:59.455Z,19.50
2018-12-06T21:36:31.310Z,19.40
2018-12-06T21:39:03.196Z,19.40
2018-12-06T21:41:34.249Z,19.20
2018-12-06T21:44:05.208Z,19.10
2018-12-06T21:46:35.763Z,18.80
2018-12-06T21:49:06.042Z,18.70
2018-12-06T21:51:37.674Z,18.70
2018-12-06T21:54:08.961Z,18.70
2018-12-06T21:56:39.604Z,18.80
2018-12-06T21:59:09.868Z,18.90
2018-12-06T22:01:40.379Z,19.00
2018-12-06T22:04:11.280Z,19.10
2018-12-06T22:06:41.614Z,19.20
2018-12-06T22:09:11.010Z,19.30
2018-12-06T22:11:40.588Z,19.40
2018-12-06T22:14:10.166Z,19.50
2018-12-06T22:16:39.696Z,19.50
2018-12-06T22:19:09.666Z,19.40
2018-12-06T22:21:38.699Z,19.40
2018-12-06T22:24:08.815Z,19.50
2018-12-06T22:26:38.978Z,19.50
2018-12-06T22:29:09.181Z,19.50
2018-12-06T22:31:39.595Z,19.50
2018-12-06T22:34:10.026Z,19.60
2018-12-06T22:36:40.566Z,19.60
2018-12-06T22:39:12.003Z,19.80
2018-12-06T22:41:42.445Z,19.90
2018-12-06T22:44:13.138Z,20.00
2018-12-06T22:46:56.802Z,20.00
2018-12-06T22:49:27.299Z,20.10
2018-12-06T22:51:57.730Z,20.10
2018-12-06T22:54:28.108Z,20.00
2018-12-06T22:56:58.652Z,19.90
2018-12-06T22:59:28.962Z,19.90
2018-12-06T23:01:59.242Z,19.80
2018-12-06T23:04:29.660Z,19.70
2018-12-06T23:07:00.671Z,19.50
2018-12-06T23:09:31.356Z,19.40
2018-12-06T23:12:16.779Z,19.30
2018-12-06T23:14:47.270Z,19.30
2018-12-06T23:17:18.357Z,19.30
2018-12-06T23:19:48.328Z,19.20
2018-12-06T23:22:18.999Z,19.20
2018-12-06T23:24:48.475Z,19.20
2018-12-06T23:27:18.127Z,19.20
2018-12-06T23:29:46.974Z,19.30
2018-12-06T23:32:15.931Z,19.40
2018-12-06T23:34:46.132Z,19.50
2018-12-06T23:37:16.411Z,19.60
2018-12-06T23:39:46.675Z,19.70
2018-12-06T23:42:17.034Z,19.80
2018-12-06T23:44:49.566Z,19.90
2018-12-06T23:47:20.103Z,20.00
2018-12-06T23:49:50.810Z,20.10
2018-12-06T23:52:21.442Z,20.10
2018-12-06T23:54:51.515Z,20.10
2018-12-06T23:57:21.808Z,20.10
2018-12-06T23:59:52.145Z,20.00
